ilmateenistus.ee keskkonnaagentuur.ee
EETN Tallinna lennuväli
FTEO31 EETN 172300
TAF EETN 172320Z 1800/1824 16007KT 9999 SCT030 PROB40 TEMPO 1808/1817
    4000 TSRA SCT020CB BKN030 BECMG 1809/1811 22012KT=

METAR EETN 180020Z 17005KT 130V210 CAVOK 19/15 Q1016 =
Tallinna lennuväli
EEKA Kärdla lennuväli
METAR EEKA 172350Z NIL=
Kärdla lennuväli
EEKE Kuressaare lennuväli
METAR EEKE 172350Z AUTO 19005KT 9999NDV NCD 16/15 Q1016=
Kuressaare lennuväli
EEPU Pärnu lennuväli
METAR EEPU 172350Z NIL=
Pärnu lennuväli
EETU Tartu lennuväli
FCEO32 EETN 172000 AAA
TAF AMD EETU 172000Z 1721/1803 CNL=

METAR EETU 180020Z 15002KT CAVOK 18/14 Q1018=
Tartu lennuväli
EEEI Ämari lennuväli
METAR EEEI 180020Z AUTO 15006KT CAVOK 18/14 Q1016=
Ämari lennuväli